sensor_id;sensor_type;location;lat;lon;timestamp;pressure;altitude;pressure_sealevel;temperature
33267;BMP180;19638;49.080;11.896;2023-12-20T00:00:48;96124.00;;;5.50
33267;BMP180;19638;49.080;11.896;2023-12-20T00:04:52;96119.00;;;5.50
33267;BMP180;19638;49.080;11.896;2023-12-20T00:08:56;96112.00;;;5.50
33267;BMP180;19638;49.080;11.896;2023-12-20T00:13:00;96120.00;;;5.50
33267;BMP180;19638;49.080;11.896;2023-12-20T00:17:04;96133.00;;;5.50
33267;BMP180;19638;49.080;11.896;2023-12-20T00:21:07;96114.00;;;5.50
33267;BMP180;19638;49.080;11.896;2023-12-20T00:25:12;96122.00;;;5.40
33267;BMP180;19638;49.080;11.896;2023-12-20T00:29:15;96111.00;;;5.40
33267;BMP180;19638;49.080;11.896;2023-12-20T00:33:18;96112.00;;;5.40
33267;BMP180;19638;49.080;11.896;2023-12-20T00:37:21;96109.00;;;5.40
33267;BMP180;19638;49.080;11.896;2023-12-20T00:41:27;96101.00;;;5.40
33267;BMP180;19638;49.080;11.896;2023-12-20T00:45:30;96093.00;;;5.30
33267;BMP180;19638;49.080;11.896;2023-12-20T00:49:33;96099.00;;;5.10
33267;BMP180;19638;49.080;11.896;2023-12-20T00:53:36;96092.00;;;5.00
33267;BMP180;19638;49.080;11.896;2023-12-20T00:57:41;96098.00;;;4.80
33267;BMP180;19638;49.080;11.896;2023-12-20T01:01:44;96100.00;;;4.80
33267;BMP180;19638;49.080;11.896;2023-12-20T01:05:47;96106.00;;;4.80
33267;BMP180;19638;49.080;11.896;2023-12-20T01:09:50;96109.00;;;4.70
33267;BMP180;19638;49.080;11.896;2023-12-20T01:13:55;96108.00;;;4.70
33267;BMP180;19638;49.080;11.896;2023-12-20T01:17:58;96110.00;;;4.70
33267;BMP180;19638;49.080;11.896;2023-12-20T01:22:01;96108.00;;;4.70
33267;BMP180;19638;49.080;11.896;2023-12-20T01:26:05;96101.00;;;4.70
33267;BMP180;19638;49.080;11.896;2023-12-20T01:30:10;96091.00;;;4.70
33267;BMP180;19638;49.080;11.896;2023-12-20T01:34:13;96083.00;;;4.70
33267;BMP180;19638;49.080;11.896;2023-12-20T01:38:16;96070.00;;;4.70
33267;BMP180;19638;49.080;11.896;2023-12-20T01:42:21;96069.00;;;4.80
33267;BMP180;19638;49.080;11.896;2023-12-20T01:46:26;96080.00;;;4.80
33267;BMP180;19638;49.080;11.896;2023-12-20T01:50:30;96077.00;;;4.70
33267;BMP180;19638;49.080;11.896;2023-12-20T01:54:34;96076.00;;;4.70
33267;BMP180;19638;49.080;11.896;2023-12-20T01:58:41;96075.00;;;4.80
33267;BMP180;19638;49.080;11.896;2023-12-20T02:02:47;96064.00;;;4.70
33267;BMP180;19638;49.080;11.896;2023-12-20T02:06:52;96062.00;;;4.70
33267;BMP180;19638;49.080;11.896;2023-12-20T02:10:55;96060.00;;;4.70
33267;BMP180;19638;49.080;11.896;2023-12-20T02:14:59;96054.00;;;4.70
33267;BMP180;19638;49.080;11.896;2023-12-20T02:19:04;96044.00;;;4.70
33267;BMP180;19638;49.080;11.896;2023-12-20T02:23:09;96035.00;;;4.70
33267;BMP180;19638;49.080;11.896;2023-12-20T02:27:12;96036.00;;;4.70
33267;BMP180;19638;49.080;11.896;2023-12-20T02:31:16;96037.00;;;4.70
33267;BMP180;19638;49.080;11.896;2023-12-20T02:35:19;96021.00;;;4.70
33267;BMP180;19638;49.080;11.896;2023-12-20T02:39:24;96022.00;;;4.70
33267;BMP180;19638;49.080;11.896;2023-12-20T02:43:27;96023.00;;;4.70
33267;BMP180;19638;49.080;11.896;2023-12-20T02:47:30;96025.00;;;4.70
33267;BMP180;19638;49.080;11.896;2023-12-20T02:51:33;96026.00;;;4.70
33267;BMP180;19638;49.080;11.896;2023-12-20T02:55:37;96024.00;;;4.70
33267;BMP180;19638;49.080;11.896;2023-12-20T02:59:40;96020.00;;;4.80
33267;BMP180;19638;49.080;11.896;2023-12-20T03:03:43;96017.00;;;4.80
33267;BMP180;19638;49.080;11.896;2023-12-20T03:07:46;96001.00;;;4.80
33267;BMP180;19638;49.080;11.896;2023-12-20T03:11:51;96013.00;;;4.80
33267;BMP180;19638;49.080;11.896;2023-12-20T03:15:54;96008.00;;;4.90
33267;BMP180;19638;49.080;11.896;2023-12-20T03:19:57;96010.00;;;4.90
33267;BMP180;19638;49.080;11.896;2023-12-20T03:24:00;96015.00;;;4.90
33267;BMP180;19638;49.080;11.896;2023-12-20T03:28:05;96002.00;;;4.90
33267;BMP180;19638;49.080;11.896;2023-12-20T03:32:08;96004.00;;;4.90
33267;BMP180;19638;49.080;11.896;2023-12-20T03:36:12;96019.00;;;4.90
33267;BMP180;19638;49.080;11.896;2023-12-20T03:40:15;96010.00;;;4.90
33267;BMP180;19638;49.080;11.896;2023-12-20T03:44:19;96014.00;;;5.00
33267;BMP180;19638;49.080;11.896;2023-12-20T03:48:23;96019.00;;;4.90
33267;BMP180;19638;49.080;11.896;2023-12-20T03:52:26;96019.00;;;4.90
33267;BMP180;19638;49.080;11.896;2023-12-20T03:56:29;96016.00;;;4.90
33267;BMP180;19638;49.080;11.896;2023-12-20T04:00:34;96015.00;;;4.90
33267;BMP180;19638;49.080;11.896;2023-12-20T04:04:37;96015.00;;;4.90
33267;BMP180;19638;49.080;11.896;2023-12-20T04:08:40;96012.00;;;4.90
33267;BMP180;19638;49.080;11.896;2023-12-20T04:12:43;96019.00;;;4.90
33267;BMP180;19638;49.080;11.896;2023-12-20T04:16:48;96016.00;;;4.90
33267;BMP180;19638;49.080;11.896;2023-12-20T04:20:51;96014.00;;;4.90
33267;BMP180;19638;49.080;11.896;2023-12-20T04:24:54;96016.00;;;4.90
33267;BMP180;19638;49.080;11.896;2023-12-20T04:28:57;96023.00;;;4.90
33267;BMP180;19638;49.080;11.896;2023-12-20T04:33:02;96019.00;;;4.90
33267;BMP180;19638;49.080;11.896;2023-12-20T04:37:05;96034.00;;;4.90
33267;BMP180;19638;49.080;11.896;2023-12-20T04:41:08;96024.00;;;4.90
33267;BMP180;19638;49.080;11.896;2023-12-20T04:45:12;96018.00;;;4.90
33267;BMP180;19638;49.080;11.896;2023-12-20T04:49:18;96019.00;;;4.90
33267;BMP180;19638;49.080;11.896;2023-12-20T04:53:22;96019.00;;;4.90
33267;BMP180;19638;49.080;11.896;2023-12-20T04:57:25;96018.00;;;4.90
33267;BMP180;19638;49.080;11.896;2023-12-20T05:01:28;96014.00;;;4.90
33267;BMP180;19638;49.080;11.896;2023-12-20T05:05:33;96001.00;;;4.90
33267;BMP180;19638;49.080;11.896;2023-12-20T05:09:36;96027.00;;;5.00
33267;BMP180;19638;49.080;11.896;2023-12-20T05:13:39;96013.00;;;5.00
33267;BMP180;19638;49.080;11.896;2023-12-20T05:17:51;96019.00;;;5.00
33267;BMP180;19638;49.080;11.896;2023-12-20T05:21:55;96016.00;;;5.00
33267;BMP180;19638;49.080;11.896;2023-12-20T05:25:58;96028.00;;;5.10
33267;BMP180;19638;49.080;11.896;2023-12-20T05:30:02;96031.00;;;5.00
33267;BMP180;19638;49.080;11.896;2023-12-20T05:34:06;96027.00;;;5.00
33267;BMP180;19638;49.080;11.896;2023-12-20T05:38:11;96039.00;;;5.10
33267;BMP180;19638;49.080;11.896;2023-12-20T05:42:14;96054.00;;;5.10
33267;BMP180;19638;49.080;11.896;2023-12-20T05:46:17;96064.00;;;5.10
33267;BMP180;19638;49.080;11.896;2023-12-20T05:50:21;96065.00;;;5.10
33267;BMP180;19638;49.080;11.896;2023-12-20T05:54:25;96070.00;;;5.00
33267;BMP180;19638;49.080;11.896;2023-12-20T05:58:28;96073.00;;;5.00
33267;BMP180;19638;49.080;11.896;2023-12-20T06:02:32;96091.00;;;5.00
33267;BMP180;19638;49.080;11.896;2023-12-20T06:06:41;96074.00;;;5.10
33267;BMP180;19638;49.080;11.896;2023-12-20T06:10:46;96074.00;;;5.10
33267;BMP180;19638;49.080;11.896;2023-12-20T06:14:49;96082.00;;;5.10
33267;BMP180;19638;49.080;11.896;2023-12-20T06:18:52;96072.00;;;5.10
33267;BMP180;19638;49.080;11.896;2023-12-20T06:22:56;96086.00;;;5.10
33267;BMP180;19638;49.080;11.896;2023-12-20T06:27:01;96092.00;;;5.00
33267;BMP180;19638;49.080;11.896;2023-12-20T06:31:04;96106.00;;;5.00
33267;BMP180;19638;49.080;11.896;2023-12-20T06:35:08;96109.00;;;5.00
33267;BMP180;19638;49.080;11.896;2023-12-20T06:39:11;96096.00;;;5.00
33267;BMP180;19638;49.080;11.896;2023-12-20T06:43:17;96104.00;;;5.00
33267;BMP180;19638;49.080;11.896;2023-12-20T06:47:40;96104.00;;;5.00
33267;BMP180;19638;49.080;11.896;2023-12-20T06:51:44;96120.00;;;5.00
33267;BMP180;19638;49.080;11.896;2023-12-20T06:55:47;96135.00;;;5.10
33267;BMP180;19638;49.080;11.896;2023-12-20T06:59:52;96130.00;;;5.00
33267;BMP180;19638;49.080;11.896;2023-12-20T07:03:55;96131.00;;;5.00
33267;BMP180;19638;49.080;11.896;2023-12-20T07:07:58;96140.00;;;5.00
33267;BMP180;19638;49.080;11.896;2023-12-20T07:12:02;96146.00;;;5.00
33267;BMP180;19638;49.080;11.896;2023-12-20T07:16:07;96143.00;;;4.90
33267;BMP180;19638;49.080;11.896;2023-12-20T07:20:11;96152.00;;;4.90
33267;BMP180;19638;49.080;11.896;2023-12-20T07:24:14;96146.00;;;5.00
33267;BMP180;19638;49.080;11.896;2023-12-20T07:28:17;96152.00;;;5.00
33267;BMP180;19638;49.080;11.896;2023-12-20T07:32:22;96156.00;;;5.00
33267;BMP180;19638;49.080;11.896;2023-12-20T07:36:25;96184.00;;;5.00
33267;BMP180;19638;49.080;11.896;2023-12-20T07:40:28;96186.00;;;5.00
33267;BMP180;19638;49.080;11.896;2023-12-20T07:44:31;96191.00;;;5.00
33267;BMP180;19638;49.080;11.896;2023-12-20T07:48:36;96186.00;;;5.00
33267;BMP180;19638;49.080;11.896;2023-12-20T07:52:39;96199.00;;;5.00
33267;BMP180;19638;49.080;11.896;2023-12-20T07:56:42;96206.00;;;5.10
33267;BMP180;19638;49.080;11.896;2023-12-20T08:00:45;96208.00;;;5.10
33267;BMP180;19638;49.080;11.896;2023-12-20T08:04:50;96203.00;;;5.10
33267;BMP180;19638;49.080;11.896;2023-12-20T08:08:53;96207.00;;;5.10
33267;BMP180;19638;49.080;11.896;2023-12-20T08:13:07;96207.00;;;5.10
33267;BMP180;19638;49.080;11.896;2023-12-20T08:17:10;96222.00;;;5.10
33267;BMP180;19638;49.080;11.896;2023-12-20T08:21:15;96218.00;;;5.10
33267;BMP180;19638;49.080;11.896;2023-12-20T08:25:21;96217.00;;;5.10
33267;BMP180;19638;49.080;11.896;2023-12-20T08:29:25;96219.00;;;5.20
33267;BMP180;19638;49.080;11.896;2023-12-20T08:33:28;96229.00;;;5.20
33267;BMP180;19638;49.080;11.896;2023-12-20T08:37:33;96218.00;;;5.20
33267;BMP180;19638;49.080;11.896;2023-12-20T08:41:37;96227.00;;;5.30
33267;BMP180;19638;49.080;11.896;2023-12-20T08:45:41;96212.00;;;5.30
33267;BMP180;19638;49.080;11.896;2023-12-20T08:49:44;96206.00;;;5.40
33267;BMP180;19638;49.080;11.896;2023-12-20T08:53:50;96218.00;;;5.40
33267;BMP180;19638;49.080;11.896;2023-12-20T08:57:53;96221.00;;;5.50
33267;BMP180;19638;49.080;11.896;2023-12-20T09:01:57;96223.00;;;5.50
33267;BMP180;19638;49.080;11.896;2023-12-20T09:06:00;96212.00;;;5.60
33267;BMP180;19638;49.080;11.896;2023-12-20T09:10:06;96208.00;;;5.60
33267;BMP180;19638;49.080;11.896;2023-12-20T09:14:10;96208.00;;;5.60
33267;BMP180;19638;49.080;11.896;2023-12-20T09:18:14;96209.00;;;5.70
33267;BMP180;19638;49.080;11.896;2023-12-20T09:22:17;96205.00;;;5.70
33267;BMP180;19638;49.080;11.896;2023-12-20T09:26:22;96212.00;;;5.70
33267;BMP180;19638;49.080;11.896;2023-12-20T09:30:25;96221.00;;;5.70
33267;BMP180;19638;49.080;11.896;2023-12-20T09:34:29;96232.00;;;5.80
33267;BMP180;19638;49.080;11.896;2023-12-20T09:38:32;96213.00;;;5.90
33267;BMP180;19638;49.080;11.896;2023-12-20T09:42:41;96227.00;;;5.90
33267;BMP180;19638;49.080;11.896;2023-12-20T09:46:49;96219.00;;;6.00
33267;BMP180;19638;49.080;11.896;2023-12-20T09:50:53;96221.00;;;6.00
33267;BMP180;19638;49.080;11.896;2023-12-20T09:54:57;96231.00;;;6.00
33267;BMP180;19638;49.080;11.896;2023-12-20T09:59:01;96215.00;;;6.00
33267;BMP180;19638;49.080;11.896;2023-12-20T10:03:06;96209.00;;;6.00
33267;BMP180;19638;49.080;11.896;2023-12-20T10:07:10;96198.00;;;6.00
33267;BMP180;19638;49.080;11.896;2023-12-20T10:11:13;96188.00;;;6.10
33267;BMP180;19638;49.080;11.896;2023-12-20T10:15:18;96194.00;;;6.10
33267;BMP180;19638;49.080;11.896;2023-12-20T10:19:23;96200.00;;;6.20
33267;BMP180;19638;49.080;11.896;2023-12-20T10:23:26;96187.00;;;6.20
33267;BMP180;19638;49.080;11.896;2023-12-20T10:27:30;96194.00;;;6.20
33267;BMP180;19638;49.080;11.896;2023-12-20T10:31:35;96187.00;;;6.40
33267;BMP180;19638;49.080;11.896;2023-12-20T10:35:40;96196.00;;;6.40
33267;BMP180;19638;49.080;11.896;2023-12-20T10:39:50;96193.00;;;6.40
33267;BMP180;19638;49.080;11.896;2023-12-20T10:43:59;96205.00;;;6.40
33267;BMP180;19638;49.080;11.896;2023-12-20T10:48:04;96195.00;;;6.50
33267;BMP180;19638;49.080;11.896;2023-12-20T10:52:09;96202.00;;;6.60
33267;BMP180;19638;49.080;11.896;2023-12-20T10:56:16;96191.00;;;6.60
33267;BMP180;19638;49.080;11.896;2023-12-20T11:00:21;96194.00;;;6.50
33267;BMP180;19638;49.080;11.896;2023-12-20T11:04:33;96191.00;;;6.40
33267;BMP180;19638;49.080;11.896;2023-12-20T11:08:43;96196.00;;;6.30
33267;BMP180;19638;49.080;11.896;2023-12-20T11:12:54;96201.00;;;6.30
33267;BMP180;19638;49.080;11.896;2023-12-20T11:17:07;96188.00;;;6.40
33267;BMP180;19638;49.080;11.896;2023-12-20T11:21:12;96187.00;;;6.30
33267;BMP180;19638;49.080;11.896;2023-12-20T11:25:16;96183.00;;;6.40
33267;BMP180;19638;49.080;11.896;2023-12-20T11:29:30;96174.00;;;6.40
33267;BMP180;19638;49.080;11.896;2023-12-20T11:33:36;96166.00;;;6.40
33267;BMP180;19638;49.080;11.896;2023-12-20T11:37:42;96163.00;;;6.60
33267;BMP180;19638;49.080;11.896;2023-12-20T11:41:46;96173.00;;;6.80
33267;BMP180;19638;49.080;11.896;2023-12-20T11:45:51;96174.00;;;6.70
33267;BMP180;19638;49.080;11.896;2023-12-20T11:49:55;96167.00;;;6.90
33267;BMP180;19638;49.080;11.896;2023-12-20T11:54:00;96151.00;;;7.00
33267;BMP180;19638;49.080;11.896;2023-12-20T11:58:04;96141.00;;;7.10
33267;BMP180;19638;49.080;11.896;2023-12-20T12:02:07;96147.00;;;7.00
33267;BMP180;19638;49.080;11.896;2023-12-20T12:06:11;96134.00;;;6.90
33267;BMP180;19638;49.080;11.896;2023-12-20T12:10:16;96133.00;;;6.80
33267;BMP180;19638;49.080;11.896;2023-12-20T12:14:19;96128.00;;;6.70
33267;BMP180;19638;49.080;11.896;2023-12-20T12:18:23;96146.00;;;6.50
33267;BMP180;19638;49.080;11.896;2023-12-20T12:22:26;96142.00;;;6.50
33267;BMP180;19638;49.080;11.896;2023-12-20T12:26:31;96143.00;;;6.50
33267;BMP180;19638;49.080;11.896;2023-12-20T12:30:34;96154.00;;;6.60
33267;BMP180;19638;49.080;11.896;2023-12-20T12:34:47;96155.00;;;6.70
33267;BMP180;19638;49.080;11.896;2023-12-20T12:38:50;96136.00;;;6.70
33267;BMP180;19638;49.080;11.896;2023-12-20T12:42:55;96128.00;;;6.60
33267;BMP180;19638;49.080;11.896;2023-12-20T12:46:58;96127.00;;;6.40
33267;BMP180;19638;49.080;11.896;2023-12-20T12:51:01;96138.00;;;6.30
33267;BMP180;19638;49.080;11.896;2023-12-20T12:55:05;96114.00;;;6.10
33267;BMP180;19638;49.080;11.896;2023-12-20T12:59:10;96123.00;;;6.10
33267;BMP180;19638;49.080;11.896;2023-12-20T13:03:13;96141.00;;;6.30
33267;BMP180;19638;49.080;11.896;2023-12-20T13:07:16;96130.00;;;6.50
33267;BMP180;19638;49.080;11.896;2023-12-20T13:11:20;96134.00;;;6.60
33267;BMP180;19638;49.080;11.896;2023-12-20T13:15:25;96125.00;;;6.50
33267;BMP180;19638;49.080;11.896;2023-12-20T13:19:28;96135.00;;;6.40
33267;BMP180;19638;49.080;11.896;2023-12-20T13:23:32;96136.00;;;6.40
33267;BMP180;19638;49.080;11.896;2023-12-20T13:27:38;96141.00;;;6.40
33267;BMP180;19638;49.080;11.896;2023-12-20T13:31:43;96153.00;;;6.40
33267;BMP180;19638;49.080;11.896;2023-12-20T13:35:46;96141.00;;;6.20
33267;BMP180;19638;49.080;11.896;2023-12-20T13:39:50;96144.00;;;6.00
33267;BMP180;19638;49.080;11.896;2023-12-20T13:43:53;96136.00;;;5.80
33267;BMP180;19638;49.080;11.896;2023-12-20T13:47:58;96137.00;;;5.80
33267;BMP180;19638;49.080;11.896;2023-12-20T13:52:01;96139.00;;;5.80
33267;BMP180;19638;49.080;11.896;2023-12-20T13:56:06;96139.00;;;5.80
33267;BMP180;19638;49.080;11.896;2023-12-20T14:00:11;96140.00;;;5.70
33267;BMP180;19638;49.080;11.896;2023-12-20T14:04:18;96151.00;;;5.80
33267;BMP180;19638;49.080;11.896;2023-12-20T14:08:41;96153.00;;;5.90
33267;BMP180;19638;49.080;11.896;2023-12-20T14:12:44;96151.00;;;6.00
33267;BMP180;19638;49.080;11.896;2023-12-20T14:16:48;96161.00;;;6.00
33267;BMP180;19638;49.080;11.896;2023-12-20T14:20:53;96157.00;;;6.00
33267;BMP180;19638;49.080;11.896;2023-12-20T14:24:57;96152.00;;;5.90
33267;BMP180;19638;49.080;11.896;2023-12-20T14:29:00;96152.00;;;5.80
33267;BMP180;19638;49.080;11.896;2023-12-20T14:33:04;96149.00;;;5.80
33267;BMP180;19638;49.080;11.896;2023-12-20T14:37:09;96132.00;;;5.80
33267;BMP180;19638;49.080;11.896;2023-12-20T14:41:12;96134.00;;;5.80
33267;BMP180;19638;49.080;11.896;2023-12-20T14:45:16;96125.00;;;5.80
33267;BMP180;19638;49.080;11.896;2023-12-20T14:49:19;96132.00;;;5.80
33267;BMP180;19638;49.080;11.896;2023-12-20T14:53:24;96136.00;;;5.80
33267;BMP180;19638;49.080;11.896;2023-12-20T14:57:28;96129.00;;;5.80
33267;BMP180;19638;49.080;11.896;2023-12-20T15:01:31;96120.00;;;5.70
33267;BMP180;19638;49.080;11.896;2023-12-20T15:05:35;96123.00;;;5.50
33267;BMP180;19638;49.080;11.896;2023-12-20T15:09:40;96109.00;;;5.50
33267;BMP180;19638;49.080;11.896;2023-12-20T15:13:47;96109.00;;;5.40
33267;BMP180;19638;49.080;11.896;2023-12-20T15:17:58;96111.00;;;5.30
33267;BMP180;19638;49.080;11.896;2023-12-20T15:22:05;96106.00;;;5.20
33267;BMP180;19638;49.080;11.896;2023-12-20T15:26:10;96112.00;;;5.20
33267;BMP180;19638;49.080;11.896;2023-12-20T15:30:13;96090.00;;;5.20
33267;BMP180;19638;49.080;11.896;2023-12-20T15:34:16;96101.00;;;5.20
33267;BMP180;19638;49.080;11.896;2023-12-20T15:38:20;96106.00;;;5.10
33267;BMP180;19638;49.080;11.896;2023-12-20T15:42:25;96097.00;;;5.10
33267;BMP180;19638;49.080;11.896;2023-12-20T15:46:28;96099.00;;;5.10
33267;BMP180;19638;49.080;11.896;2023-12-20T15:50:31;96117.00;;;5.10
33267;BMP180;19638;49.080;11.896;2023-12-20T15:54:34;96123.00;;;5.10
33267;BMP180;19638;49.080;11.896;2023-12-20T15:58:42;96113.00;;;5.10
33267;BMP180;19638;49.080;11.896;2023-12-20T16:02:45;96102.00;;;5.10
33267;BMP180;19638;49.080;11.896;2023-12-20T16:06:48;96118.00;;;5.10
33267;BMP180;19638;49.080;11.896;2023-12-20T16:10:52;96117.00;;;5.20
33267;BMP180;19638;49.080;11.896;2023-12-20T16:14:56;96124.00;;;5.20
33267;BMP180;19638;49.080;11.896;2023-12-20T16:18:59;96115.00;;;5.20
33267;BMP180;19638;49.080;11.896;2023-12-20T16:23:03;96113.00;;;5.20
33267;BMP180;19638;49.080;11.896;2023-12-20T16:27:06;96118.00;;;5.20
33267;BMP180;19638;49.080;11.896;2023-12-20T16:31:10;96114.00;;;5.20
33267;BMP180;19638;49.080;11.896;2023-12-20T16:35:14;96122.00;;;5.20
33267;BMP180;19638;49.080;11.896;2023-12-20T16:39:18;96112.00;;;5.20
33267;BMP180;19638;49.080;11.896;2023-12-20T16:43:25;96105.00;;;5.20
33267;BMP180;19638;49.080;11.896;2023-12-20T16:47:29;96099.00;;;5.20
33267;BMP180;19638;49.080;11.896;2023-12-20T16:51:32;96089.00;;;5.20
33267;BMP180;19638;49.080;11.896;2023-12-20T16:55:35;96095.00;;;5.20
33267;BMP180;19638;49.080;11.896;2023-12-20T16:59:42;96060.00;;;5.20
33267;BMP180;19638;49.080;11.896;2023-12-20T17:03:46;96078.00;;;5.20
33267;BMP180;19638;49.080;11.896;2023-12-20T17:07:49;96072.00;;;5.30
33267;BMP180;19638;49.080;11.896;2023-12-20T17:11:52;96075.00;;;5.30
33267;BMP180;19638;49.080;11.896;2023-12-20T17:15:55;96074.00;;;5.30
33267;BMP180;19638;49.080;11.896;2023-12-20T17:20:00;96084.00;;;5.30
33267;BMP180;19638;49.080;11.896;2023-12-20T17:24:04;96104.00;;;5.30
33267;BMP180;19638;49.080;11.896;2023-12-20T17:28:11;96113.00;;;5.40
33267;BMP180;19638;49.080;11.896;2023-12-20T17:32:14;96113.00;;;5.40
33267;BMP180;19638;49.080;11.896;2023-12-20T17:36:19;96117.00;;;5.40
33267;BMP180;19638;49.080;11.896;2023-12-20T17:40:22;96134.00;;;5.40
33267;BMP180;19638;49.080;11.896;2023-12-20T17:44:25;96147.00;;;5.50
33267;BMP180;19638;49.080;11.896;2023-12-20T17:48:28;96139.00;;;5.50
33267;BMP180;19638;49.080;11.896;2023-12-20T17:52:33;96125.00;;;5.50
33267;BMP180;19638;49.080;11.896;2023-12-20T17:56:36;96145.00;;;5.50
33267;BMP180;19638;49.080;11.896;2023-12-20T18:00:39;96148.00;;;5.50
33267;BMP180;19638;49.080;11.896;2023-12-20T18:04:42;96144.00;;;5.50
33267;BMP180;19638;49.080;11.896;2023-12-20T18:08:47;96142.00;;;5.50
33267;BMP180;19638;49.080;11.896;2023-12-20T18:12:50;96147.00;;;5.50
33267;BMP180;19638;49.080;11.896;2023-12-20T18:16:54;96155.00;;;5.50
33267;BMP180;19638;49.080;11.896;2023-12-20T18:20:57;96163.00;;;5.50
33267;BMP180;19638;49.080;11.896;2023-12-20T18:25:02;96162.00;;;5.60
33267;BMP180;19638;49.080;11.896;2023-12-20T18:29:06;96165.00;;;5.60
33267;BMP180;19638;49.080;11.896;2023-12-20T18:33:09;96157.00;;;5.60
33267;BMP180;19638;49.080;11.896;2023-12-20T18:37:12;96163.00;;;5.60
33267;BMP180;19638;49.080;11.896;2023-12-20T18:41:17;96152.00;;;5.60
33267;BMP180;19638;49.080;11.896;2023-12-20T18:45:20;96154.00;;;5.60
33267;BMP180;19638;49.080;11.896;2023-12-20T18:49:23;96145.00;;;5.50
33267;BMP180;19638;49.080;11.896;2023-12-20T18:53:27;96160.00;;;5.50
33267;BMP180;19638;49.080;11.896;2023-12-20T18:57:31;96155.00;;;5.60
33267;BMP180;19638;49.080;11.896;2023-12-20T19:01:35;96150.00;;;5.50
33267;BMP180;19638;49.080;11.896;2023-12-20T19:05:38;96165.00;;;5.40
33267;BMP180;19638;49.080;11.896;2023-12-20T19:09:41;96172.00;;;5.40
33267;BMP180;19638;49.080;11.896;2023-12-20T19:13:46;96160.00;;;5.30
33267;BMP180;19638;49.080;11.896;2023-12-20T19:17:49;96160.00;;;5.20
33267;BMP180;19638;49.080;11.896;2023-12-20T19:21:52;96162.00;;;5.10
33267;BMP180;19638;49.080;11.896;2023-12-20T19:25:55;96150.00;;;5.00
33267;BMP180;19638;49.080;11.896;2023-12-20T19:30:00;96151.00;;;4.90
33267;BMP180;19638;49.080;11.896;2023-12-20T19:34:04;96143.00;;;4.90
33267;BMP180;19638;49.080;11.896;2023-12-20T19:38:07;96140.00;;;4.80
33267;BMP180;19638;49.080;11.896;2023-12-20T19:42:10;96140.00;;;4.80
33267;BMP180;19638;49.080;11.896;2023-12-20T19:46:15;96135.00;;;4.80
33267;BMP180;19638;49.080;11.896;2023-12-20T19:50:19;96134.00;;;4.80
33267;BMP180;19638;49.080;11.896;2023-12-20T19:54:22;96129.00;;;4.70
33267;BMP180;19638;49.080;11.896;2023-12-20T19:58:26;96131.00;;;4.70
33267;BMP180;19638;49.080;11.896;2023-12-20T20:02:30;96132.00;;;4.70
33267;BMP180;19638;49.080;11.896;2023-12-20T20:06:34;96132.00;;;4.60
33267;BMP180;19638;49.080;11.896;2023-12-20T20:10:37;96120.00;;;4.60
33267;BMP180;19638;49.080;11.896;2023-12-20T20:14:41;96113.00;;;4.50
33267;BMP180;19638;49.080;11.896;2023-12-20T20:18:45;96118.00;;;4.50
33267;BMP180;19638;49.080;11.896;2023-12-20T20:22:49;96112.00;;;4.40
33267;BMP180;19638;49.080;11.896;2023-12-20T20:26:52;96098.00;;;4.40
33267;BMP180;19638;49.080;11.896;2023-12-20T20:30:56;96091.00;;;4.40
33267;BMP180;19638;49.080;11.896;2023-12-20T20:35:00;96089.00;;;4.40
33267;BMP180;19638;49.080;11.896;2023-12-20T20:39:03;96084.00;;;4.40
33267;BMP180;19638;49.080;11.896;2023-12-20T20:43:07;96074.00;;;4.30
33267;BMP180;19638;49.080;11.896;2023-12-20T20:47:10;96075.00;;;4.40
33267;BMP180;19638;49.080;11.896;2023-12-20T20:51:15;96075.00;;;4.30
33267;BMP180;19638;49.080;11.896;2023-12-20T20:55:18;96065.00;;;4.30
33267;BMP180;19638;49.080;11.896;2023-12-20T20:59:22;96068.00;;;4.30
33267;BMP180;19638;49.080;11.896;2023-12-20T21:03:25;96062.00;;;4.30
33267;BMP180;19638;49.080;11.896;2023-12-20T21:07:31;96050.00;;;4.30
33267;BMP180;19638;49.080;11.896;2023-12-20T21:11:34;96048.00;;;4.20
33267;BMP180;19638;49.080;11.896;2023-12-20T21:15:37;96034.00;;;4.20
33267;BMP180;19638;49.080;11.896;2023-12-20T21:19:40;96035.00;;;4.20
33267;BMP180;19638;49.080;11.896;2023-12-20T21:23:45;96019.00;;;4.20
33267;BMP180;19638;49.080;11.896;2023-12-20T21:27:48;96025.00;;;4.20
33267;BMP180;19638;49.080;11.896;2023-12-20T21:31:51;96020.00;;;4.20
33267;BMP180;19638;49.080;11.896;2023-12-20T21:35:57;96004.00;;;4.20
33267;BMP180;19638;49.080;11.896;2023-12-20T21:40:02;96017.00;;;4.10
33267;BMP180;19638;49.080;11.896;2023-12-20T21:44:06;96016.00;;;4.10
33267;BMP180;19638;49.080;11.896;2023-12-20T21:48:10;96013.00;;;4.20
33267;BMP180;19638;49.080;11.896;2023-12-20T21:52:13;96014.00;;;4.20
33267;BMP180;19638;49.080;11.896;2023-12-20T21:56:21;96012.00;;;4.20
33267;BMP180;19638;49.080;11.896;2023-12-20T22:00:25;96013.00;;;4.20
33267;BMP180;19638;49.080;11.896;2023-12-20T22:04:28;96001.00;;;4.20
33267;BMP180;19638;49.080;11.896;2023-12-20T22:08:33;95992.00;;;4.20
33267;BMP180;19638;49.080;11.896;2023-12-20T22:12:37;95990.00;;;4.20
33267;BMP180;19638;49.080;11.896;2023-12-20T22:16:40;95974.00;;;4.20
33267;BMP180;19638;49.080;11.896;2023-12-20T22:20:43;95972.00;;;4.20
33267;BMP180;19638;49.080;11.896;2023-12-20T22:24:46;95977.00;;;4.20
33267;BMP180;19638;49.080;11.896;2023-12-20T22:28:51;95971.00;;;4.30
33267;BMP180;19638;49.080;11.896;2023-12-20T22:32:55;95958.00;;;4.30
33267;BMP180;19638;49.080;11.896;2023-12-20T22:36:59;95956.00;;;4.30
33267;BMP180;19638;49.080;11.896;2023-12-20T22:41:02;95945.00;;;4.30
33267;BMP180;19638;49.080;11.896;2023-12-20T22:45:08;95949.00;;;4.30
33267;BMP180;19638;49.080;11.896;2023-12-20T22:49:11;95933.00;;;4.30
33267;BMP180;19638;49.080;11.896;2023-12-20T22:53:14;95923.00;;;4.30
33267;BMP180;19638;49.080;11.896;2023-12-20T22:57:17;95930.00;;;4.40
33267;BMP180;19638;49.080;11.896;2023-12-20T23:01:22;95927.00;;;4.40
33267;BMP180;19638;49.080;11.896;2023-12-20T23:05:25;95918.00;;;4.40
33267;BMP180;19638;49.080;11.896;2023-12-20T23:09:28;95910.00;;;4.40
33267;BMP180;19638;49.080;11.896;2023-12-20T23:13:31;95914.00;;;4.40
33267;BMP180;19638;49.080;11.896;2023-12-20T23:17:36;95917.00;;;4.40
33267;BMP180;19638;49.080;11.896;2023-12-20T23:21:39;95918.00;;;4.50
33267;BMP180;19638;49.080;11.896;2023-12-20T23:25:43;95909.00;;;4.50